logo tempoitalia

Diretta Meteo Wichita Colonel James Jabara, Stati Uniti (USA)lunedì 31 agosto ore 00:54

Mappa
Sereno 29 °C Sereno 24 Ore: T.min 25 T.max 41
Ponente Sud Km/h 18.5 Punto di rugiada: 15 °C Umidità: 42% Visibilità: 10 Km
Il sole sorge alle: 06:58 Il sole tramonta alle: 19:59
31 Agosto 2026 00:54 tempo osservato: Sereno Sereno 29 42 1013 vento: Nord S 18.5
30 Agosto 2026 23:54 tempo osservato: Sereno Sereno 30 40 1012 vento: Nord S 22.2
30 Agosto 2026 22:54 tempo osservato: Sereno Sereno 31 37 1012 vento: Nord S/SE 20.3
30 Agosto 2026 21:54 tempo osservato: Sereno Sereno 32 35 1012 vento: Nord S 18.5
30 Agosto 2026 20:54 tempo osservato: Sereno Sereno 33 33 1011 vento: Nord S 16.7
30 Agosto 2026 19:54 tempo osservato: Sereno Sereno 35 30 1010 vento: Nord S 24
30 Agosto 2026 18:54 tempo osservato: Sereno Sereno 37 28 1010 vento: Nord S 29.6
30 Agosto 2026 17:54 tempo osservato: Sereno Sereno 39 26 1010 vento: Nord S 27.8
30 Agosto 2026 16:54 tempo osservato: Sereno Sereno 39 26 1010 vento: Nord S 37
30 Agosto 2026 15:54 tempo osservato: Sereno Sereno 40 24 1010 vento: Nord S 37
30 Agosto 2026 14:54 tempo osservato: Sereno Sereno 41 24 1011 vento: Nord S/SO 37
30 Agosto 2026 13:54 tempo osservato: Sereno Sereno 39 27 1011 vento: Nord S 33.3
30 Agosto 2026 12:54 tempo osservato: Sereno Sereno 37 32 1012 vento: Nord S 29.6
30 Agosto 2026 11:54 tempo osservato: Sereno Sereno 35 36 1013 vento: Nord S 35.2
30 Agosto 2026 10:54 tempo osservato: Sereno Sereno 33 38 1013 vento: Nord S/SO 31.5
30 Agosto 2026 09:54 tempo osservato: Sereno Sereno 31 43 1013 vento: Nord S 24
30 Agosto 2026 08:54 tempo osservato: Sereno Sereno 28 48 1014 vento: Nord S 27.8
30 Agosto 2026 07:54 tempo osservato: Sereno Sereno 26 54 1014 vento: Nord S 20.3
30 Agosto 2026 06:54 tempo osservato: Sereno Sereno 25 57 1013 vento: Nord S 20.3
30 Agosto 2026 05:54 tempo osservato: Sereno Sereno 25 57 1013 vento: Nord S 16.7
30 Agosto 2026 04:54 tempo osservato: Sereno Sereno 26 54 1013 vento: Nord S 14.8
30 Agosto 2026 03:54 tempo osservato: Sereno Sereno 27 50 1013 vento: Nord S 14.8
30 Agosto 2026 02:54 tempo osservato: Sereno Sereno 28 45 1013 vento: Nord S 18.5
30 Agosto 2026 01:54 tempo osservato: Sereno Sereno 28 48 1013 vento: Nord S 20.3